x

Portlock Bank- 76nm Ene Of Kodiak, Ak (46080) Wave Buoy

10:50pm - Tue 30th Jun 2015 All times are AKDT. -8 hours from GMT.

  • Sig Wave height 3.3ft
  • Peak Period 6s
  • Average Period 5s
  • Wind
    9mph, 11mph gusts
  • Sea Temp 53°f
  • Air Temp 53°f
  • Sea Pressure 1020.7mb
  • Portlock Bank- 76nm Ene Of Kodiak, Ak
  • Portlock Bank- 76nm Ene Of Kodiak, Ak

More Historic Weather Station data

Upgrade to MSW Pro to gain access to the past 30 days of data for over 8000 Wavebouys and Weather Stations around the globe.

Join Pro

Comparision Forecast

View Surf forecast
   
Tue 06/30 10:50pm 3.5ft 6s 5s 9 11 mph 1020.7mb 53f 53f
9:50pm 3.5ft 6s 5s 11 13 mph 1020.4mb 53f 53f
8:50pm 3.5ft 6s 5s 9 11 mph 1020.4mb 53f 53f
7:50pm 3.5ft 6s 5s 7 9 mph 1020.4mb 54f 53f
6:50pm 3.5ft 6s 5s 9 11 mph 1020.2mb 53f 53f
5:50pm 3.5ft 6s 5s 7
mph
1020.1mb 53f 54f
4:50pm 3.5ft 6s 5s 9 11 mph 1020mb 53f 54f
3:50pm 3ft 6s 5s 9 11 mph 1019.8mb 53f 53f
2:50pm 3.5ft 6s 5s 9 11 mph 1019.6mb 53f 53f
1:50pm 3.5ft 6s 5s 9 11 mph 1019.3mb 53f 53f
12:50pm 3ft 15s 5s 7 9 mph 1019mb 53f 53f
11:50am 3ft 6s 5s 9
mph
1018.8mb 53f 53f
10:50am 3.5ft 6s 5s 9 11 mph 1018.4mb 52f 53f
9:50am 3ft 6s 4s 9
mph
1018mb 52f 53f
8:50am 3.5ft 6s 5s 9 11 mph 1017.4mb 52f 52f
7:50am 3.5ft 6s 5s 9 11 mph 1016.8mb 52f 52f
6:50am 3.5ft 6s 5s 9 11 mph 1016.6mb 52f 52f
5:50am 3.5ft 6s 5s 7
mph
1016.3mb 52f 52f
4:50am 3.5ft 6s 5s 7 9 mph 1015.9mb 52f 52f
3:50am 3.5ft 6s 5s 9 11 mph 1015.6mb 52f 52f
2:50am 3.5ft 7s 5s 9 11 mph 1015.4mb 52f 52f
1:50am 3.5ft 6s 5s 7 9 mph 1015.2mb 52f 52f
12:50am 4ft 6s 5s 7
mph
1014.9mb 52f 52f
Mon 06/29 11:50pm 3.5ft 6s 5s 9
mph
1014.6mb 52f 52f
10:50pm 4ft 6s 5s 9 11 mph 1014.2mb 52f 52f
9:50pm 4.5ft 6s 5s 9 11 mph 1013.8mb 52f 52f
8:50pm 4.5ft 5s 4s 11
mph
1013.5mb 52f 52f
7:50pm 4.5ft 6s 4s 13 16 mph 1013.1mb 52f 52f
6:50pm 4.5ft 6s 5s 13 16 mph 1012.7mb 52f 52f
5:50pm 4.5ft 6s 5s 11 16 mph 1012.6mb 52f 52f
4:50pm 3.5ft 6s 5s 11 16 mph 1012.3mb 52f 52f
3:50pm 4ft 6s 5s 9 11 mph 1011.9mb 52f 53f
2:50pm 4ft 6s 5s 9 11 mph 1011.6mb 52f 52f
1:50pm 4ft 6s 5s 11 13 mph 1011.1mb 52f 51f
12:50pm 4ft 6s 5s 11 13 mph 1010.6mb 52f 52f
11:50am 3.5ft 6s 5s 13 18 mph 1010.2mb 52f 51f
10:50am 4.5ft 6s 5s 11 13 mph 1009.9mb 52f 51f
9:50am 4.5ft 6s 5s 11 13 mph 1009.6mb 52f 52f
8:50am 4.5ft 6s 4s 11 13 mph 1009.5mb 52f 51f
7:50am 5ft 6s 4s 13 16 mph 1009.2mb 52f 51f
6:50am 5ft 6s 5s 18 20 mph 1008.9mb 52f 52f
5:50am 5ft 6s 5s 16 18 mph 1009mb 52f 52f
4:50am 4.5ft 6s 5s 13 16 mph 1009.2mb 52f 52f
3:50am 4.5ft 6s 5s 11 13 mph 1009.5mb 52f 52f
2:50am 4.5ft 6s 5s 11 13 mph 1009.9mb 52f 52f
1:50am 4.5ft 6s 5s 11 13 mph 1010mb 52f 53f
12:50am 4.5ft 6s 5s 11 13 mph 1010mb 52f 52f
Sun 06/28 11:50pm 4.5ft 6s 5s 13 16 mph 1010.1mb 52f 52f
10:50pm 4ft 6s 4s 18 20 mph 1009.9mb 52f 52f
9:50pm 4ft 6s 4s 13 16 mph 1009.7mb 52f 53f
8:50pm 4.5ft 6s 4s 11 13 mph 1009.5mb 52f 52f
7:50pm 4.5ft 6s 5s 11 13 mph 1009.3mb 52f 52f
6:50pm 5ft 6s 5s 7 9 mph 1009.4mb 52f 50f
5:50pm 5ft 6s 5s 9 11 mph 1009.6mb 52f 52f
4:50pm 4.5ft 6s 5s 11 16 mph 1009.7mb 52f 52f
3:50pm 4.5ft 7s 5s 11 13 mph 1010.2mb 52f 51f
2:50pm 5ft 6s 5s 16 20 mph 1010.3mb 52f 52f
1:50pm 4.5ft 6s 5s 13 16 mph 1010.3mb 52f 52f
12:50pm 4.5ft 6s 5s 20 22 mph 1010.2mb 52f 51f
11:50am 5ft 6s 5s 16 20 mph 1010.2mb 52f 52f
10:50am 5ft 7s 5s 16 18 mph 1010mb 52f 52f
9:50am 4.5ft 7s 5s 16 18 mph 1009.9mb 52f 52f
8:50am 4.5ft 7s 5s 16 18 mph 1009.9mb 52f 52f
7:50am 5ft 7s 5s 18 22 mph 1009.7mb 52f 52f
6:50am 5.5ft 6s 5s 18 22 mph 1009.5mb 52f 52f
5:50am 5.5ft 7s 5s 13 18 mph 1009.5mb 52f 52f
4:50am 6ft 7s 5s 13 16 mph 1009.4mb 52f 52f
3:50am 6ft 7s 5s 13 18 mph 1009.2mb 52f 52f
2:50am 5ft 8s 5s 16 18 mph 1009.1mb 52f 52f
1:50am 5ft 7s 5s 13 16 mph 1008.9mb 52f 52f
12:50am 5ft 7s 5s 11 16 mph 1008.7mb 52f 53f
Sat 06/27 11:50pm 5ft 7s 5s 11 13 mph 1008.3mb 52f 53f
10:50pm 5ft 7s 5s 16 18 mph 1008.1mb 52f 53f
9:50pm 5ft 7s 5s 13 16 mph 1007.6mb 52f 53f
8:50pm 5ft 7s 5s 13 16 mph 1007.4mb 52f 53f
7:50pm 5ft 7s 5s 13 18 mph 1007.3mb 52f 53f
6:50pm 5ft 7s 5s 16 18 mph 1007mb 52f 53f
5:50pm 5ft 8s 5s 13 16 mph 1006.9mb 52f 53f
4:50pm 6ft 7s 6s 11 13 mph 1006.7mb 52f 53f
3:50pm 5ft 7s 5s 11 13 mph 1006.6mb 52f 52f
2:50pm 6ft 7s 6s 11 13 mph 1006.2mb 51f 52f
1:50pm 6ft 7s 5s 11 13 mph 1006mb 51f 52f
12:50pm 6ft 7s 5s 13 18 mph 1005.9mb 51f 52f
11:50am 6ft 7s 5s 16 18 mph 1005.8mb 51f 52f
10:50am 6ft 7s 5s 20 22 mph 1006.3mb 51f 52f
9:50am 5.5ft 6s 5s 20 25 mph 1006.7mb 51f 52f
8:50am 5ft 6s 5s 20 25 mph 1007.1mb 51f 52f
7:50am 4.5ft 6s 5s 18 20 mph 1007.5mb 51f 52f